Tiempo atmosférico en la estación meteorológica de Bunyola, Sierra de Alfabia, Illes Balears (1030 m.)

Fecha
DESCASC
Temp. máxima en grados centígrados (hora)
DESCASC
Temp. mínima en grados centígrados (hora)
DESCASC
Temp. media en grados centígrados
DESCASC
Racha de viento máxima en m/sg (hora)
DESCASC
Velocidad máxima media en intervalos de 10 minutos(hora)
DESCASC
Precipitaciones diarias en mm
DESCASC
Precipitaciones de 00:00 a 06:00 en mm
DESCASC
Precipitaciones de 06:00 a 12:00 en mm
DESCASC
Precipitaciones de 12:00 a 18:00 en mm
DESCASC
Precipitaciones de 18:00 a 24:00 en mm
DESCASC

Gráficas

Temp. máximas Temp. mínimas Temp. medias Precipitaciones Rachas de viento máximas Velocidades máximas media en intervalos de 10 minutos

Datos horarios

Fecha y hora oficial Temperatura (ºC) Velocidad del viento (km/h) Dirección del viento Racha (km/h) Dirección de racha Precipitación (mm) Presión (hPa) Tendencia (hPa) Humedad (%)
2017-09-22 23:00:00 13.2 19 Este 37 Sudeste 0 -- -- 88
2017-09-22 22:00:00 13.4 23 Sudeste 29 Sudeste 0 -- -- 88
2017-09-22 21:00:00 13.8 23 Sudeste 29 Sudeste 0 -- -- 88
2017-09-22 20:00:00 14.4 19 Sudeste 28 Sudeste 0 -- -- 82
2017-09-22 19:00:00 15.3 18 Sudeste 27 Sudeste 0 -- -- 76
2017-09-22 18:00:00 16.5 20 Sudeste 26 Sudeste 0 -- -- 67
2017-09-22 17:00:00 16.3 4 Nordeste 15 Norte 0 -- -- 72
2017-09-22 16:00:00 16.3 7 Norte 20 Norte 0 -- -- 70
2017-09-22 15:00:00 18.9 6 Este 19 Sudeste 0 -- -- 55
2017-09-22 14:00:00 17.5 10 Sudeste 24 Sur 0 -- -- 56
2017-09-22 13:00:00 17.8 16 Sudeste 27 Sudeste 0 -- -- 53
2017-09-22 12:00:00 17.3 15 Sudeste 26 Sudeste 0 -- -- 55
2017-09-22 11:00:00 16 19 Sudeste 28 Este 0 -- -- 65
2017-09-22 10:00:00 14.5 22 Sudeste 31 Sudeste 0 -- -- 76
2017-09-22 09:00:00 12.9 21 Sudeste 26 Sudeste 0 -- -- 83
2017-09-22 08:00:00 12.1 18 Este 23 Este 0 -- -- 86
2017-09-22 07:00:00 11.8 14 Este 20 Este 0 -- -- 85
2017-09-22 06:00:00 12.3 14 Este 21 Este 0 -- -- 66
2017-09-22 05:00:00 12.3 17 Sudeste 27 Sudeste 0 -- -- 78
2017-09-22 04:00:00 12.5 22 Sudeste 27 Sudeste 0 -- -- 83
2017-09-22 03:00:00 12.4 21 Sudeste 25 Sudeste 0 -- -- 85
2017-09-22 02:00:00 12.7 18 Sudeste 24 Sudeste 0 -- -- 87
2017-09-22 01:00:00 12.8 17 Sudeste 27 Sudeste 0 -- -- 77
2017-09-22 00:00:00 12.8 23 Sudeste 30 Sudeste 0 -- -- 74
2017-09-21 23:00:00 13 24 Sudeste 28 Sudeste 0 -- -- 71
2017-09-21 22:00:00 12.9 23 Sudeste 28 Sudeste 0 -- -- 83
2017-09-21 21:00:00 13.4 22 Sudeste 27 Sur 0 -- -- 82
2017-09-21 20:00:00 14.3 21 Sur 27 Sur 0 -- -- 81
2017-09-21 19:00:00 14.9 22 Sur 26 Sur 0 -- -- 78
2017-09-21 18:00:00 16.6 18 Sur 27 Sur 0 -- -- 66
2017-09-21 17:00:00 16.4 10 Sur 21 Sur 0 -- -- 65
2017-09-21 16:00:00 17.2 9 Sudoeste 22 Sur 0 -- -- 63
2017-09-21 15:00:00 18.8 10 Sur 23 Sudoeste 0 -- -- 57
2017-09-21 14:00:00 17.5 12 Sur 26 Sudoeste 0 -- -- 61
2017-09-21 13:00:00 17.5 16 Sur 27 Sur 0 -- -- 60
2017-09-21 12:00:00 15.2 18 Sur 31 Sur 0 -- -- 70
2017-09-21 11:00:00 14.6 21 Sur 29 Sur 0 -- -- 80
2017-09-21 10:00:00 13.8 21 Sur 28 Sur 0 -- -- 88
2017-09-21 09:00:00 13.2 21 Sur 28 Sur 0 -- -- 88
2017-09-21 08:00:00 12.7 18 Sur 24 Sur 0 -- -- 88
2017-09-21 07:00:00 13.1 17 Sur 26 Sur 0 -- -- 88
2017-09-21 06:00:00 13.5 17 Sur 24 Sur 0 -- -- 88
2017-09-21 05:00:00 13.6 13 Sur 24 Sur 0 -- -- 88
2017-09-21 04:00:00 13.3 16 Sur 24 Sur 0 -- -- 88
2017-09-21 03:00:00 13.6 14 Sur 23 Sur 0 -- -- 88
2017-09-21 02:00:00 13.4 15 Sur 22 Sur 0 -- -- 88
2017-09-21 01:00:00 13.6 13 Sur 22 Sudoeste 0 -- -- 88
2017-09-21 00:00:00 13.1 15 Sur 24 Sudoeste 0 -- -- 87
2017-09-20 23:00:00 13.3 15 Sur 23 Sudoeste 0 -- -- 86
2017-09-20 22:00:00 13.3 14 Sudoeste 22 Sudoeste 0 -- -- 87
2017-09-20 21:00:00 13.1 12 Sur 21 Sudoeste 0 -- -- 87
2017-09-20 20:00:00 13.5 12 Sudoeste 17 Sudoeste 0 -- -- 82
2017-09-20 19:00:00 14.3 8 Sur 15 Sudoeste 0 -- -- 82
2017-09-20 18:00:00 14.6 9 Sudoeste 19 Sudoeste 0 -- -- 76
2017-09-20 17:00:00 15.1 10 Sudoeste 21 Sudoeste 0 -- -- 75
2017-09-20 16:00:00 14.7 12 Sudoeste 23 Sudoeste 0 -- -- 72
2017-09-20 15:00:00 14.4 11 Sur 18 Sudoeste 0 -- -- 68
2017-09-20 14:00:00 14.8 12 Sudoeste 22 Sudoeste 0 -- -- 66
2017-09-20 13:00:00 13.9 13 Sudoeste 22 Sur 0 -- -- 67
2017-09-20 12:00:00 12.5 17 Sur 25 Sur 0 -- -- 72
2017-09-20 11:00:00 11.8 14 Sur 19 Sur 0 -- -- 67
2017-09-20 10:00:00 11.1 13 Sur 17 Sur 0 -- -- 71
2017-09-20 09:00:00 10.5 12 Sur 35 Sur 0 -- -- 78
2017-09-20 08:00:00 10.2 12 Sur 14 Sur 0 -- -- 79
2017-09-20 07:00:00 10.1 10 Sudoeste 17 Sudoeste 0 -- -- 82
2017-09-20 06:00:00 9.8 8 Sur 12 Sur 0 -- -- 81
2017-09-20 05:00:00 9.8 3 Sudoeste 11 Oeste 0 -- -- 74
2017-09-20 04:00:00 10 7 Sur 21 Sudeste 0 -- -- 74
2017-09-20 03:00:00 9.5 17 Sudeste 23 Sudeste 0 -- -- 84
2017-09-20 02:00:00 9.7 18 Sudeste 27 Sudeste 0 -- -- 84
2017-09-20 01:00:00 9.8 21 Sudeste 28 Sudeste 0 -- -- 86
2017-09-20 00:00:00 10.1 21 Sudeste 30 Sudeste 0 -- -- 86
2017-09-19 23:00:00 10.2 21 Sudeste 26 Sudeste 0 -- -- 85
2017-09-19 22:00:00 10.6 8 Este 17 Este 0 -- -- 71
2017-09-19 21:00:00 11.8 9 Norte 21 Noroeste 0 -- -- 46
2017-09-19 20:00:00 12 12 Noroeste 25 Norte 0 -- -- 52
2017-09-19 19:00:00 12.6 12 Norte 21 Norte 0 -- -- 60
2017-09-19 18:00:00 13.6 12 Norte 24 Norte 0 -- -- 56
2017-09-19 17:00:00 13.3 19 Noroeste 33 Norte 0 -- -- 55
2017-09-19 16:00:00 14.2 18 Noroeste 41 Norte 0 -- -- 53
2017-09-19 15:00:00 14.3 25 Noroeste 41 Noroeste 0 -- -- 53
2017-09-19 14:00:00 15.7 27 Noroeste 37 Norte 0 -- -- 51
2017-09-19 13:00:00 14.5 24 Noroeste 41 Norte 0 -- -- 55
2017-09-19 12:00:00 15.2 31 Noroeste 47 Noroeste 0 -- -- 58
2017-09-19 11:00:00 14.9 28 Noroeste 42 Norte 0 -- -- 65
2017-09-19 10:00:00 12.5 23 Noroeste 36 Noroeste 0 -- -- 85
2017-09-19 09:00:00 11.9 17 Noroeste 25 Noroeste 0 -- -- 82
2017-09-19 08:00:00 10.9 13 Noroeste 24 Noroeste 0.1 -- -- 85
2017-09-19 07:00:00 11.3 10 Noroeste 29 Noroeste 0 -- -- 80
2017-09-19 06:00:00 11.5 13 Noroeste 29 Noroeste 0 -- -- 78
2017-09-19 05:00:00 11.7 3 Noroeste 17 Noroeste 0 -- -- 76
2017-09-19 04:00:00 11.3 11 Noroeste 15 Noroeste 0 -- -- 76
2017-09-19 03:00:00 11.7 12 Noroeste 16 Noroeste 0 -- -- 71
2017-09-19 02:00:00 11.7 10 Noroeste 17 Norte 0 -- -- 68
2017-09-19 01:00:00 12.1 13 Norte 31 Norte 0 -- -- 64
2017-09-19 00:00:00 12.7 25 Norte 37 Norte 0 -- -- 55
2017-09-18 23:00:00 13.2 28 Norte 51 Norte 0 -- -- 49
2017-09-18 22:00:00 13.3 32 Norte 50 Norte 0 -- -- 47
2017-09-18 21:00:00 12.7 27 Norte 42 Norte 0 -- -- 57
2017-09-18 20:00:00 12.2 27 Norte 41 Norte 0 -- -- 78
2017-09-18 19:00:00 13.1 33 Norte 50 Norte 0 -- -- 85
2017-09-18 18:00:00 14.5 39 Norte 53 Noroeste 0 -- -- 86
2017-09-18 17:00:00 15.3 35 Noroeste 59 Noroeste 0 -- -- 87
2017-09-18 16:00:00 16.7 28 Noroeste 55 Noroeste 0 -- -- 70
2017-09-18 15:00:00 18.6 24 Noroeste 49 Noroeste 0 -- -- 56
2017-09-18 14:00:00 19.2 17 Noroeste 41 Oeste 0 -- -- 54
2017-09-18 13:00:00 16.2 27 Oeste 46 Oeste 0.1 -- -- 59
2017-09-18 12:00:00 15.8 15 Sudoeste 39 Sudoeste 0 -- -- 88
2017-09-18 11:00:00 14.8 24 Sur 39 Sudoeste 0 -- -- 88
2017-09-18 10:00:00 15.4 22 Sur 47 Sur 0 -- -- 88
2017-09-18 09:00:00 15.3 24 Sur 49 Sur 0 -- -- 88
2017-09-18 08:00:00 14.9 27 Sur 46 Sur 0 -- -- 88
2017-09-18 07:00:00 15 28 Sur 42 Sur 0 -- -- 88
2017-09-18 06:00:00 14.9 24 Sur 40 Sur 0.1 -- -- 88
2017-09-18 05:00:00 14.8 24 Sur 37 Sur 0 -- -- 88
2017-09-18 04:00:00 14.6 21 Sur 31 Sur 0 -- -- 88
2017-09-18 03:00:00 14.4 21 Sur 34 Sur 0 -- -- 88
2017-09-18 02:00:00 14.4 18 Sur 30 Sur 0 -- -- 88
2017-09-18 01:00:00 14.3 21 Sur 33 Sur 0 -- -- 88
2017-09-18 00:00:00 14.1 19 Sur 31 Sur 0 -- -- 88
2017-09-17 23:00:00 13.6 19 Sur 25 Sur 0 -- -- 88
2017-09-17 22:00:00 13.3 18 Sur 31 Sur 0 -- -- 88
2017-09-17 21:00:00 12.8 19 Sur 26 Sur 0 -- -- 87
2017-09-17 20:00:00 13.2 18 Sur 25 Sur 0 -- -- 86
2017-09-17 19:00:00 14 17 Sur 28 Sur 0 -- -- 79
2017-09-17 18:00:00 15.4 15 Sur 27 Sur 0 -- -- 71
2017-09-17 17:00:00 16 13 Sur 23 Sudoeste 0 -- -- 63
2017-09-17 16:00:00 16.1 10 Sudoeste 20 Sudoeste 0 -- -- 57
2017-09-17 15:00:00 16.6 8 Sudoeste 19 Sudoeste 0 -- -- 52
2017-09-17 14:00:00 16.7 10 Sudoeste 21 Sur 0 -- -- 54
2017-09-17 13:00:00 16.2 10 Sudoeste 21 Sudoeste 0 -- -- 48
2017-09-17 12:00:00 15.7 10 Sur 22 Sudoeste 0 -- -- 47
2017-09-17 11:00:00 15.1 8 Sudoeste 23 Oeste 0 -- -- 41
2017-09-17 10:00:00 14.2 8 Sur 19 Oeste 0 -- -- 45
2017-09-17 09:00:00 11.6 9 Sur 15 Sur 0 -- -- 67
2017-09-17 08:00:00 10.1 10 Sur 12 Sudeste 0 -- -- 63
2017-09-17 07:00:00 10 0 Calma 26 Norte 0 -- -- 64
2017-09-17 06:00:00 10.1 21 Norte 28 Norte 0 -- -- 69
2017-09-17 05:00:00 10 23 Noroeste 28 Norte 0 -- -- 73
2017-09-17 04:00:00 10.2 24 Norte 37 Noroeste 0 -- -- 78
2017-09-17 03:00:00 9.8 32 Noroeste 41 Noroeste 0 -- -- 82
2017-09-17 02:00:00 9.9 30 Noroeste 38 Noroeste 0 -- -- 83
2017-09-17 01:00:00 9.7 21 Noroeste 30 Noroeste 0 -- -- 75
2017-09-17 00:00:00 9.7 22 Noroeste 31 Noroeste 0 -- -- 69
2017-09-16 23:00:00 10 20 Noroeste 28 Noroeste 0 -- -- 86
2017-09-16 22:00:00 10 11 Noroeste 19 Noroeste 0 -- -- 74
2017-09-16 21:00:00 10.4 6 Oeste 13 Oeste 0 -- -- 78
2017-09-16 20:00:00 10.8 7 Noroeste 16 Noroeste 0 -- -- 83
2017-09-16 19:00:00 12.2 4 Noroeste 12 Noroeste 0 -- -- 78
2017-09-16 18:00:00 12.8 0 Calma 13 Noroeste 0 -- -- 74
2017-09-16 17:00:00 11.6 7 Noroeste 17 Norte 0 -- -- 81
2017-09-16 16:00:00 10.4 10 Norte 27 Norte 1.9 -- -- 88
2017-09-16 15:00:00 11.7 11 Norte 23 Noroeste 0 -- -- 85
2017-09-16 14:00:00 11.2 15 Sudeste 22 Sudeste 0.4 -- -- 86
2017-09-16 13:00:00 11.2 9 Nordeste 29 Sudeste 1.2 -- -- 84
2017-09-16 12:00:00 11.7 22 Este 32 Sudeste 0 -- -- 79
2017-09-16 11:00:00 11.1 15 Este 22 Sudeste 0 -- -- 84
2017-09-16 10:00:00 11.4 14 Nordeste 31 Nordeste 0.2 -- -- 73
2017-09-16 09:00:00 9.9 20 Norte 27 Norte 0.3 -- -- 88
2017-09-16 08:00:00 9.4 14 Norte 23 Norte 0 -- -- 88
2017-09-16 07:00:00 9.9 17 Norte 26 Norte 0 -- -- 88
2017-09-16 06:00:00 9.1 22 Norte 32 Norte 0 -- -- 88
2017-09-16 05:00:00 9.2 27 Noroeste 37 Norte 0 -- -- 88
2017-09-16 04:00:00 10.1 27 Noroeste 36 Norte 0 -- -- 88
2017-09-16 03:00:00 9.9 15 Norte 28 Norte 0.2 -- -- 88
2017-09-16 02:00:00 10.4 3 Norte 28 Nordeste 1.6 -- -- 88
2017-09-16 01:00:00 10.4 16 Norte 23 Norte 0 -- -- 88
2017-09-16 00:00:00 11 16 Este 25 Nordeste 0 -- -- 88
2017-09-15 23:00:00 11.1 15 Este 23 Este 0 -- -- 88
2017-09-15 22:00:00 11.7 10 Este 42 Sudeste 0.1 -- -- 88
2017-09-15 21:00:00 11.6 31 Sudeste 50 Sudeste 0 -- -- 88
2017-09-15 20:00:00 12.1 31 Sudeste 46 Sudeste 0 -- -- 88
2017-09-15 19:00:00 12.4 26 Sudeste 47 Sudeste 0 -- -- 88
2017-09-15 18:00:00 12.5 31 Sudeste 50 Sudeste 0 -- -- 88
2017-09-15 17:00:00 12.8 37 Sudeste 51 Sudeste 0 -- -- 88
2017-09-15 16:00:00 13 36 Sudeste 49 Sudeste 0.3 -- -- 88
2017-09-15 15:00:00 13.2 21 Este 60 Sudeste 34.4 -- -- 88
2017-09-15 14:00:00 12.5 42 Sudeste 65 Sudeste 1.1 -- -- 88
2017-09-15 13:00:00 12.5 46 Sudeste 63 Sudeste 0.1 -- -- 88
2017-09-15 12:00:00 12.2 44 Sudeste 62 Sudeste 0 -- -- 88
2017-09-15 11:00:00 12.3 39 Sudeste 59 Sudeste 0 -- -- 88
2017-09-15 10:00:00 12.1 39 Sudeste 56 Sudeste 0 -- -- 88
2017-09-15 09:00:00 11.7 41 Sudeste 55 Sudeste 0 -- -- 88
2017-09-15 08:00:00 11.8 42 Sudeste 58 Sudeste 0 -- -- 88
2017-09-15 07:00:00 11.9 40 Sudeste 55 Sudeste 0 -- -- 88
2017-09-15 06:00:00 11.6 45 Sudeste 56 Sudeste 0 -- -- 88
2017-09-15 05:00:00 12 40 Sudeste 54 Sur 0 -- -- 88
2017-09-15 04:00:00 12 40 Sudeste 55 Sudeste 0 -- -- 88
2017-09-15 03:00:00 12.1 41 Sudeste 57 Sudeste 0 -- -- 88
2017-09-15 02:00:00 12.4 40 Sudeste 54 Sudeste 0 -- -- 88
2017-09-15 01:00:00 13.1 39 Sudeste 53 Sudeste 0 -- -- 88
2017-09-15 00:00:00 13.4 39 Sudeste 60 Sudeste 0 -- -- 88
2017-09-14 23:00:00 14.3 44 Sudeste 60 Sudeste 0 -- -- 88
2017-09-14 22:00:00 15.1 38 Sudeste 55 Sudeste 0 -- -- 88
2017-09-14 21:00:00 16.2 39 Sudeste 56 Sudeste 0 -- -- 88
2017-09-14 20:00:00 17.1 28 Sudeste 41 Sudeste 0 -- -- 87
2017-09-14 19:00:00 18 11 Sudeste 19 Sur 0 -- -- 80
2017-09-14 18:00:00 19.4 8 Sur 16 Sudeste 0 -- -- 73
2017-09-14 17:00:00 19.3 11 Norte 19 Norte 0 -- -- 66
2017-09-14 16:00:00 20.3 0 Calma 15 Sur 0 -- -- 67
2017-09-14 15:00:00 20.3 5 Noroeste 17 Noroeste 0 -- -- 63
2017-09-14 14:00:00 20.2 9 Sur 21 Sur 0 -- -- 65
2017-09-14 13:00:00 19.6 12 Sur 23 Sur 0 -- -- 62
2017-09-14 12:00:00 19.6 5 Sur 26 Sudoeste 0 -- -- 66
2017-09-14 11:00:00 17.3 19 Sur 28 Sur 0 -- -- 73
2017-09-14 10:00:00 15.8 18 Sur 25 Sur 0 -- -- 87
2017-09-14 09:00:00 15.8 18 Sudoeste 24 Sudoeste 0 -- -- 77
2017-09-14 08:00:00 16.4 16 Sur 21 Sudoeste 0 -- -- 49
2017-09-14 07:00:00 17 13 Sudoeste 17 Sudoeste 0 -- -- 42
2017-09-14 06:00:00 17.2 13 Sudoeste 19 Sudoeste 0 -- -- 36
2017-09-14 05:00:00 15.3 15 Sudoeste 21 Sudoeste 0 -- -- 53
2017-09-14 04:00:00 16.4 14 Sur 19 Sudoeste 0 -- -- 33
2017-09-14 03:00:00 17 12 Sur 17 Sudoeste 0 -- -- 31
2017-09-14 02:00:00 17.4 15 Sur 21 Sur 0 -- -- 27
2017-09-14 01:00:00 16.7 18 Sur 21 Sur 0 -- -- 27
2017-09-14 00:00:00 15.2 16 Sur 23 Sur 0 -- -- 43
2017-09-13 23:00:00 15 18 Sur 27 Sur 0 -- -- 81
2017-09-13 22:00:00 15.3 19 Sur 30 Sur 0 -- -- 88
2017-09-13 21:00:00 15.6 23 Sur 39 Sur 0 -- -- 88
2017-09-13 20:00:00 15.7 28 Sur 36 Sur 0 -- -- 85
2017-09-13 19:00:00 16.2 23 Sur 36 Sur 0 -- -- 83
2017-09-13 18:00:00 17.2 21 Sur 32 Sur 0 -- -- 75
2017-09-13 17:00:00 18.2 17 Sur 27 Sudoeste 0 -- -- 69
2017-09-13 16:00:00 19.3 13 Sur 22 Sur 0 -- -- 58
2017-09-13 15:00:00 19.7 7 Sur 17 Sudoeste 0 -- -- 52
2017-09-13 14:00:00 19.6 5 Sudoeste 18 Sudoeste 0 -- -- 51
2017-09-13 13:00:00 18.5 0 Calma 18 Sur 0 -- -- 61
2017-09-13 12:00:00 17.5 5 Sur 12 Sudoeste 0 -- -- 72
2017-09-13 11:00:00 16.5 3 Sudoeste 8 Sudoeste 0 -- -- 71
2017-09-13 10:00:00 15.3 6 Sudoeste 17 Sudoeste 0 -- -- 86
2017-09-13 09:00:00 14 8 Sudoeste 17 Sudoeste 0 -- -- 87
2017-09-13 08:00:00 13.4 7 Sudoeste 10 Sudoeste 0 -- -- 86
2017-09-13 07:00:00 12.9 9 Noroeste 16 Norte 0 -- -- 75
2017-09-13 06:00:00 12.7 10 Noroeste 17 Norte 0 -- -- 78
2017-09-13 05:00:00 13.1 14 Noroeste 21 Noroeste 0 -- -- 70
2017-09-13 04:00:00 13 11 Noroeste 21 Noroeste 0 -- -- 67
2017-09-13 03:00:00 13 11 Noroeste 17 Noroeste 0 -- -- 60
2017-09-13 02:00:00 12.9 8 Sudeste 15 Sudeste 0 -- -- 87
2017-09-13 01:00:00 13.1 4 Sudeste 12 Noroeste 0 -- -- 87
2017-09-13 00:00:00 14 9 Noroeste 17 Noroeste 0 -- -- 87
2017-09-12 23:00:00 14.8 10 Noroeste 18 Noroeste 0 -- -- 86
2017-09-12 22:00:00 14.3 8 Noroeste 20 Este 0 -- -- 86
2017-09-12 21:00:00 14.5 12 Sudeste 18 Este 0 -- -- 87
2017-09-12 20:00:00 14.7 6 Sur 23 Sudeste 0 -- -- 86
2017-09-12 19:00:00 15.6 5 Sur 23 Sudeste 0 -- -- 82
2017-09-12 18:00:00 16.5 7 Sur 27 Sudeste 0 -- -- 77
2017-09-12 17:00:00 16.5 19 Sudeste 33 Sudeste 0 -- -- 78
2017-09-12 16:00:00 17.1 19 Sudeste 26 Sudeste 0 -- -- 73
2017-09-12 15:00:00 16.6 19 Sudeste 30 Sudeste 0 -- -- 75
2017-09-12 14:00:00 16.7 21 Sudeste 33 Sudeste 0 -- -- 76
2017-09-12 13:00:00 18.7 20 Sudeste 27 Sudeste 0 -- -- 67
2017-09-12 12:00:00 16.6 19 Sudeste 32 Sudeste 0 -- -- 78
2017-09-12 11:00:00 15.6 24 Sudeste 35 Sudeste 0 -- -- 88
2017-09-12 10:00:00 15.4 27 Sudeste 41 Este 0 -- -- 88
2017-09-12 09:00:00 15.7 26 Este 40 Sudeste 0 -- -- 88
2017-09-12 08:00:00 15.2 23 Sudeste 30 Este 0 -- -- 86
2017-09-12 07:00:00 15.2 20 Este 31 Este 0 -- -- 81
2017-09-12 06:00:00 16.4 13 Noroeste 22 Noroeste 0 -- -- 53
2017-09-12 05:00:00 17.3 4 Sur 19 Sur 0 -- -- 42
2017-09-12 04:00:00 19.3 6 Sur 13 Sur 0 -- -- 33
2017-09-12 03:00:00 19.9 10 Sur 17 Sur 0 -- -- 33
2017-09-12 02:00:00 20.2 6 Sudoeste 20 Sudoeste 0 -- -- 33
2017-09-12 01:00:00 19.5 12 Sudoeste 23 Sudoeste 0 -- -- 34
2017-09-12 00:00:00 19 17 Sudoeste 27 Sudoeste 0 -- -- 36
2017-09-11 23:00:00 18.4 16 Sudoeste 24 Sudoeste 0 -- -- 38
2017-09-11 22:00:00 19.8 15 Oeste 30 Oeste 0 -- -- 35
2017-09-11 21:00:00 20.3 17 Oeste 29 Oeste 0 -- -- 35
2017-09-11 20:00:00 19 18 Sudoeste 29 Oeste 0 -- -- 41
2017-09-11 19:00:00 20.5 13 Oeste 24 Oeste 0 -- -- 38
2017-09-11 18:00:00 21.5 10 Noroeste 39 Norte 0 -- -- 34
2017-09-11 17:00:00 21.9 17 Noroeste 38 Noroeste 0 -- -- 34
2017-09-11 16:00:00 21.3 12 Noroeste 37 Oeste 0 -- -- 35
2017-09-11 15:00:00 22.7 13 Noroeste 40 Noroeste 0 -- -- 34
2017-09-11 14:00:00 21 25 Noroeste 58 Noroeste 0 -- -- 37
2017-09-11 13:00:00 19.4 30 Noroeste 69 Noroeste 0 -- -- 46
2017-09-11 12:00:00 18.6 34 Noroeste 66 Noroeste 0 -- -- 51
2017-09-11 11:00:00 17 47 Noroeste 73 Norte 0 -- -- 59
2017-09-11 10:00:00 16.8 42 Noroeste 70 Noroeste 0 -- -- 61
2017-09-11 09:00:00 15.9 42 Noroeste 66 Noroeste 0 -- -- 66
2017-09-11 08:00:00 14.6 35 Noroeste 49 Noroeste 0 -- -- 77
2017-09-11 07:00:00 14.2 27 Noroeste 55 Noroeste 0 -- -- 81
2017-09-11 06:00:00 13.9 25 Noroeste 59 Noroeste 0 -- -- 76
2017-09-11 05:00:00 13.7 25 Noroeste 54 Noroeste 0 -- -- 73
2017-09-11 04:00:00 13.1 28 Noroeste 75 Noroeste 0 -- -- 56
2017-09-11 03:00:00 13.2 44 Noroeste 76 Noroeste 0 -- -- 54
2017-09-11 02:00:00 13.3 39 Noroeste 68 Noroeste 0 -- -- 60
2017-09-11 01:00:00 13 38 Noroeste 75 Noroeste 0 -- -- 61
2017-09-11 00:00:00 13.3 40 Noroeste 68 Noroeste 0 -- -- 61
2017-09-10 23:00:00 13.4 37 Noroeste 61 Noroeste 0 -- -- 61
2017-09-10 22:00:00 13.4 32 Noroeste 55 Noroeste 0 -- -- 54
2017-09-10 21:00:00 12.8 25 Noroeste 48 Noroeste 0 -- -- 54
2017-09-10 20:00:00 12.5 27 Noroeste 44 Noroeste 0 -- -- 60
2017-09-10 19:00:00 13 32 Noroeste 46 Norte 0 -- -- 61
2017-09-10 18:00:00 14.1 26 Noroeste 43 Norte 0 -- -- 57
2017-09-10 17:00:00 13.5 28 Noroeste 47 Norte 0 -- -- 65
2017-09-10 16:00:00 12.7 25 Noroeste 45 Noroeste 0 -- -- 75
2017-09-10 15:00:00 11.7 27 Noroeste 51 Noroeste 0.3 -- -- 84
2017-09-10 14:00:00 9.3 20 Norte 59 Nordeste 9.1 -- -- 75
2017-09-10 13:00:00 12.2 23 Noroeste 33 Norte 0 -- -- 78
2017-09-10 12:00:00 12.1 19 Noroeste 26 Noroeste 0 -- -- 74
2017-09-10 11:00:00 10.1 7 Noroeste 20 Sur 0.1 -- -- 78
2017-09-10 10:00:00 9 4 Sudeste 27 Este 0.5 -- -- 78
2017-09-10 09:00:00 8.9 11 Este 18 Sudeste 4 -- -- 82
2017-09-10 08:00:00 9.1 4 Sudeste 17 Norte 0.1 -- -- 76
2017-09-10 07:00:00 9.1 3 Oeste 28 Norte 5.6 -- -- 81
2017-09-10 06:00:00 9.4 11 Sudeste 16 Sudeste 1 -- -- 81
2017-09-10 05:00:00 10.4 11 Norte 32 Norte 0 -- -- 61
2017-09-10 04:00:00 10.2 21 Nordeste 33 Nordeste 0 -- -- 63
2017-09-10 03:00:00 8.6 23 Norte 58 Norte 0.3 -- -- 88
2017-09-10 02:00:00 10.2 47 Norte 71 Norte 19.2 -- -- 88
2017-09-10 01:00:00 11.7 23 Noroeste 49 Noroeste 0 -- -- 86
2017-09-10 00:00:00 11.4 16 Noroeste 43 Noroeste 1.4 -- -- 81
2017-09-09 23:00:00 12.1 15 Noroeste 30 Oeste 0.4 -- -- 69
2017-09-09 22:00:00 12.1 12 Oeste 60 Noroeste 1.8 -- -- 68
2017-09-09 21:00:00 12.6 36 Norte 63 Norte 0.9 -- -- 84
2017-09-09 20:00:00 13.1 32 Norte 52 Noroeste 0 -- -- 88
2017-09-09 19:00:00 14.9 27 Norte 69 Noroeste 0 -- -- 88
2017-09-09 18:00:00 15.5 59 Noroeste 78 Noroeste 0 -- -- 88
2017-09-09 17:00:00 16 54 Noroeste 67 Noroeste 0 -- -- 78
2017-09-09 16:00:00 17.5 22 Norte 32 Norte 0 -- -- 67
2017-09-09 15:00:00 20.3 19 Noroeste 30 Norte 0 -- -- 61
2017-09-09 14:00:00 22.4 4 Noroeste 19 Sudoeste 0 -- -- 58
2017-09-09 13:00:00 18.5 13 Sur 27 Sur 0 -- -- 88
2017-09-09 12:00:00 18.1 23 Sur 36 Sudoeste 0 -- -- 88
2017-09-09 11:00:00 17.5 22 Sur 44 Sur 0 -- -- 88
2017-09-09 10:00:00 16.9 31 Sur 54 Sur 0 -- -- 88
2017-09-09 09:00:00 16.8 33 Sur 52 Sur 0 -- -- 88
2017-09-09 08:00:00 16.6 37 Sur 55 Sur 0.1 -- -- 88
2017-09-09 07:00:00 16.2 34 Sur 47 Sur 0 -- -- 88
2017-09-09 06:00:00 16 33 Sur 45 Sur 0 -- -- 88
2017-09-09 05:00:00 15.1 19 Sur 37 Sur 0 -- -- 88
2017-09-09 04:00:00 15.9 32 Sur 49 Sudoeste 0 -- -- 88
2017-09-09 03:00:00 16.3 32 Sur 48 Sur 0 -- -- 88
2017-09-09 02:00:00 16.5 24 Sur 37 Sur 0 -- -- 88
2017-09-09 01:00:00 16.5 26 Sur 35 Sur 0 -- -- 88
2017-09-09 00:00:00 16.2 21 Sur 30 Sur 0 -- -- 88
2017-09-08 23:00:00 16.6 19 Sur 26 Sudoeste 0 -- -- 88
2017-09-08 22:00:00 16.4 18 Sur 26 Sudoeste 0 -- -- 88
2017-09-08 21:00:00 16.6 13 Sur 18 Sur 0 -- -- 87
2017-09-08 20:00:00 17 13 Sur 19 Sur 0 -- -- 81
2017-09-08 19:00:00 19.4 6 Sudoeste 18 Oeste 0 -- -- 44
2017-09-08 18:00:00 20.2 8 Noroeste 22 Norte 0 -- -- 45
2017-09-08 17:00:00 20.9 14 Noroeste 24 Noroeste 0 -- -- 37
2017-09-08 16:00:00 20.1 14 Noroeste 24 Norte 0 -- -- 48
2017-09-08 15:00:00 19.3 12 Norte 20 Norte 0.1 -- -- 66
2017-09-08 14:00:00 18.5 9 Norte 17 Norte 0 -- -- 70
2017-09-08 13:00:00 18.6 5 Norte 17 Norte 0 -- -- 74
2017-09-08 12:00:00 18.7 5 Noroeste 14 Noroeste 0 -- -- 65
2017-09-08 11:00:00 17.9 0 Calma 12 Oeste 0 -- -- 66
2017-09-08 10:00:00 16.7 8 Noroeste 23 Norte 0 -- -- 78
2017-09-08 09:00:00 15.5 15 Noroeste 26 Noroeste 0 -- -- 87
2017-09-08 08:00:00 15.2 13 Noroeste 30 Noroeste 0.3 -- -- 84
2017-09-08 07:00:00 14.8 12 Noroeste 29 Noroeste 0 -- -- 84
2017-09-08 06:00:00 14.4 14 Noroeste 30 Norte 0 -- -- 81
2017-09-08 05:00:00 14.6 22 Noroeste 31 Noroeste 0 -- -- 74
2017-09-08 04:00:00 14.4 19 Noroeste 24 Noroeste 0.1 -- -- 86
2017-09-08 03:00:00 14.6 10 Noroeste 20 Noroeste 0 -- -- 83
2017-09-08 02:00:00 14.6 10 Noroeste 19 Noroeste 0 -- -- 78
2017-09-08 01:00:00 15.1 9 Oeste 21 Oeste 0 -- -- 80
2017-09-08 00:00:00 15.3 9 Oeste 21 Oeste 0 -- -- 85
2017-09-07 23:00:00 15.6 13 Oeste 22 Oeste 0 -- -- 87
2017-09-07 22:00:00 -- -- -- -- -- -- -- -- --
2017-09-07 21:00:00 -- -- -- -- -- -- -- -- --
2017-09-07 20:00:00 16.7 12 Oeste 29 Oeste 0 -- -- 82
2017-09-07 19:00:00 17.1 15 Oeste 28 Oeste 0 -- -- 81
2017-09-07 18:00:00 17.2 11 Sudoeste 22 Oeste 0 -- -- 86
2017-09-07 17:00:00 17.1 6 Oeste 24 Oeste 0.1 -- -- 87
2017-09-07 16:00:00 16.7 12 Oeste 25 Sur 1.2 -- -- 87
2017-09-07 15:00:00 16.1 15 Sur 25 Sur 1.1 -- -- 87
2017-09-07 14:00:00 17.1 4 Sudoeste 17 Sur 0 -- -- 83
2017-09-07 13:00:00 17.7 3 Sudoeste 12 Sudoeste 0 -- -- 78
2017-09-07 12:00:00 18.5 0 Calma 18 Sur 0 -- -- 72
2017-09-07 11:00:00 18.2 4 Sur 13 Sudoeste 0 -- -- 60
2017-09-07 10:00:00 16.3 5 Nordeste 27 Norte 0.1 -- -- 77
2017-09-07 09:00:00 14.9 19 Norte 51 Nordeste 9 -- -- 88
2017-09-07 08:00:00 16.1 7 Noroeste 13 Noroeste 0 -- -- 87
2017-09-07 07:00:00 -- 0 Calma 9 Norte 0 -- -- --
2017-09-07 06:00:00 16.4 5 Noroeste 10 Noroeste 0 -- -- 85
2017-09-07 05:00:00 16.5 7 Norte 15 Norte 0 -- -- 85
2017-09-07 04:00:00 16.5 11 Norte 17 Norte 0 -- -- 84
2017-09-07 03:00:00 16.5 9 Norte 12 Norte 0 -- -- 87
2017-09-07 02:00:00 16.6 5 Este 13 Sudeste 0 -- -- 87
2017-09-07 01:00:00 16.5 9 Sudeste 16 Sudeste 0 -- -- 87
2017-09-07 00:00:00 16.5 10 Sudeste 14 Sudeste 0 -- -- 87
2017-09-06 23:00:00 16.6 4 Sudeste 10 Sudeste 0 -- -- 87
2017-09-06 22:00:00 16.7 5 Sudeste 20 Sudeste 0 -- -- 87
2017-09-06 21:00:00 17 14 Sudeste 19 Sudeste 0 -- -- 87
2017-09-06 20:00:00 17.2 15 Sur 25 Sudeste 0 -- -- 87
2017-09-06 19:00:00 17.4 21 Sur 28 Sur 0 -- -- 81
2017-09-06 18:00:00 17.7 21 Sur 30 Sudeste 0 -- -- 78
2017-09-06 17:00:00 17.5 24 Sudeste 35 Sudeste 0 -- -- 86
2017-09-06 16:00:00 18.7 18 Sur 31 Sur 0 -- -- 79
2017-09-06 15:00:00 20.2 7 Sudeste 20 Sudeste 0 -- -- 67
2017-09-06 14:00:00 20 12 Sudeste 24 Sudeste 0 -- -- 65
2017-09-06 13:00:00 20.8 8 Sur 19 Sudeste 0 -- -- 60
2017-09-06 12:00:00 21.6 4 Sudeste 18 Sur 0 -- -- 56
2017-09-06 11:00:00 21.3 10 Sudeste 21 Sudeste 0 -- -- 55
2017-09-06 10:00:00 20 10 Sur 15 Sur 0 -- -- 46
2017-09-06 09:00:00 19.4 3 Norte 11 Sudeste 0 -- -- 43
2017-09-06 08:00:00 18.2 6 Este 11 Nordeste 0 -- -- 43
2017-09-06 07:00:00 17.8 9 Nordeste 13 Nordeste 0 -- -- 43
2017-09-06 06:00:00 18 0 Calma -- -- 0 -- -- 36
2017-09-06 05:00:00 17.5 0 Calma 4 Sur 0 -- -- 35
2017-09-06 04:00:00 18.5 3 Sur 8 Sudoeste 0 -- -- 32
2017-09-06 03:00:00 18.7 5 Sudoeste 8 Oeste 0 -- -- 33
2017-09-06 02:00:00 18.7 6 Sudoeste 11 Sur 0 -- -- 32
2017-09-06 01:00:00 17.7 0 Calma 12 Sur 0 -- -- 49
2017-09-06 00:00:00 16.6 10 Sur 17 Sur 0 -- -- 87
2017-09-05 23:00:00 16.8 10 Sur 15 Sur 0 -- -- 87
2017-09-05 22:00:00 17.4 10 Sur 24 Sur 0 -- -- 50
2017-09-05 21:00:00 17 18 Sur 23 Sur 0 -- -- 82
2017-09-05 20:00:00 17.9 19 Sur 24 Sur 0 -- -- 70
2017-09-05 19:00:00 19.9 13 Sur 22 Sur 0 -- -- 53
2017-09-05 18:00:00 21.4 9 Sudoeste 22 Noroeste 0 -- -- 44
2017-09-05 17:00:00 21.9 9 Sur 23 Sudoeste 0 -- -- 39
2017-09-05 16:00:00 22.5 12 Sudoeste 26 Sudoeste 0 -- -- 39
2017-09-05 15:00:00 23.5 12 Sur 26 Sur 0 -- -- 36
2017-09-05 14:00:00 23 10 Sudoeste 30 Sudoeste 0 -- -- 44
2017-09-05 13:00:00 22.6 12 Sur 29 Sur 0 -- -- 38
2017-09-05 12:00:00 22 10 Sudoeste 18 Sur 0 -- -- 42
2017-09-05 11:00:00 20.7 8 Sur 19 Sur 0 -- -- 48
2017-09-05 10:00:00 19.8 12 Sur 27 Sur 0 -- -- 51
2017-09-05 09:00:00 18.3 18 Sur 27 Sur 0 -- -- 60
2017-09-05 08:00:00 16.9 12 Sur 19 Sudeste 0 -- -- 58
2017-09-05 07:00:00 16 19 Sur 24 Sur 0 -- -- 49
2017-09-05 06:00:00 15.9 19 Sur 22 Sur 0 -- -- 60
2017-09-05 05:00:00 16 17 Sudeste 19 Sur 0 -- -- 60
2017-09-05 04:00:00 15.5 8 Sudeste 23 Sudeste 0 -- -- 87
2017-09-05 03:00:00 15.9 20 Sudeste 24 Sudeste 0 -- -- 86
2017-09-05 02:00:00 16.2 12 Este 16 Este 0 -- -- 76
2017-09-05 01:00:00 17.7 6 Este 15 Nordeste 0 -- -- 68
2017-09-05 00:00:00 18 12 Nordeste 15 Nordeste 0 -- -- 69
2017-09-04 23:00:00 17.7 10 Este 14 Este 0 -- -- 70
2017-09-04 22:00:00 17.8 10 Norte 13 Norte 0 -- -- 69
2017-09-04 21:00:00 17.9 3 Este 21 Sudeste 0 -- -- 69
2017-09-04 20:00:00 18.5 11 Sur 19 Sur 0 -- -- 64
2017-09-04 19:00:00 19.8 11 Sur 23 Sur 0 -- -- 57
2017-09-04 18:00:00 20.6 15 Sur 34 Sur 0 -- -- 45
2017-09-04 17:00:00 21.7 16 Sur 30 Sur 0 -- -- 41
2017-09-04 16:00:00 22.4 10 Sur 30 Sur 0 -- -- 41
2017-09-04 15:00:00 21.3 7 Sudoeste 26 Sudoeste 0 -- -- 55
2017-09-04 14:00:00 20.9 11 Sur 29 Sur 0 -- -- 55
2017-09-04 13:00:00 19 13 Sur 33 Sur 0 -- -- 69
2017-09-04 12:00:00 18.5 24 Sur 35 Sur 0 -- -- 73
2017-09-04 11:00:00 17.9 22 Sur 30 Sur 0 -- -- 82
2017-09-04 10:00:00 16.3 24 Sur -- -- -- -- -- 87
2017-09-04 09:00:00 15.9 26 Sur 33 Sur 0 -- -- 87
2017-09-04 08:00:00 16 20 Sudeste 25 Sudeste 0 -- -- 87
2017-09-04 07:00:00 16.5 19 Sudeste 24 Sur 0 -- -- 73
2017-09-04 06:00:00 17.9 19 Sudeste 25 Sudeste 0 -- -- 40
2017-09-04 05:00:00 17 8 Este 14 Este 0 -- -- 54
2017-09-04 04:00:00 17.6 14 Norte 20 Norte 0 -- -- 51
2017-09-04 03:00:00 16.7 14 Noroeste 19 Noroeste 0 -- -- 55
2017-09-04 02:00:00 18.1 12 Noroeste 19 Noroeste 0 -- -- 37
2017-09-04 01:00:00 17.9 11 Noroeste 23 Noroeste 0 -- -- 42
2017-09-04 00:00:00 17.1 8 Oeste 22 Oeste 0 -- -- 56
2017-09-03 23:00:00 16.4 10 Oeste 22 Oeste 0 -- -- 78
2017-09-03 22:00:00 16.3 14 Sudoeste 24 Sur 0 -- -- 88
2017-09-03 21:00:00 16.5 17 Sur 26 Sur 0 -- -- 88
2017-09-03 20:00:00 16.7 13 Sur 26 Sur 0 -- -- 88
2017-09-03 19:00:00 17.2 12 Sur 24 Sur 0 -- -- 86
2017-09-03 18:00:00 18 12 Sur 22 Sur 0 -- -- 78
2017-09-03 17:00:00 19.2 12 Sudoeste 26 Sudoeste 0 -- -- 65
2017-09-03 16:00:00 19.2 12 Sur 21 Sudoeste 0 -- -- 65
2017-09-03 15:00:00 19.2 11 Sudoeste 23 Sudoeste 0 -- -- 63
2017-09-03 14:00:00 20.4 3 Sur 42 Sur 0 -- -- 41
2017-09-03 13:00:00 19.8 4 Sudoeste 27 Oeste 0 -- -- 45
2017-09-03 12:00:00 19.2 7 Sudoeste 18 Oeste 0 -- -- 43
2017-09-03 11:00:00 18.8 4 Oeste 15 Noroeste 0 -- -- 38
2017-09-03 10:00:00 18.1 5 Oeste 13 Sudoeste 0 -- -- 34
2017-09-03 09:00:00 16.6 7 Sudoeste 10 Sudoeste 0 -- -- 37
2017-09-03 08:00:00 14.3 5 Oeste 9 Noroeste 0 -- -- 39
2017-09-03 07:00:00 14.1 6 Noroeste 17 Noroeste 0 -- -- 37
2017-09-03 06:00:00 14.3 16 Noroeste 19 Noroeste 0 -- -- 34
2017-09-03 05:00:00 13.9 8 Noroeste 10 Noroeste 0 -- -- 36
2017-09-03 04:00:00 13.9 7 Norte 13 Noroeste 0 -- -- 38
2017-09-03 03:00:00 14.1 5 Noroeste 11 Noroeste 0 -- -- 36
2017-09-03 02:00:00 12.9 8 Este 19 Sudeste 0 -- -- 76
2017-09-03 01:00:00 12.8 13 Sudeste 23 Sudeste 0 -- -- 86
2017-09-03 00:00:00 12.7 19 Sudeste 27 Sudeste 0 -- -- 86
2017-09-02 23:00:00 13 15 Sudeste 24 Este 0 -- -- 84
2017-09-02 22:00:00 13.7 14 Sudeste 18 Sudeste 0 -- -- 82
2017-09-02 21:00:00 15 5 Norte 24 Norte 0 -- -- 48
2017-09-02 20:00:00 15.9 13 Norte 24 Norte 0 -- -- 29
2017-09-02 19:00:00 17.3 14 Noroeste 23 Noroeste 0 -- -- 38
2017-09-02 18:00:00 18.2 5 Noroeste 19 Norte 0 -- -- 30
2017-09-02 17:00:00 17.7 6 Norte 22 Norte 0 -- -- 49
2017-09-02 16:00:00 17.9 11 Norte 32 Norte 0 -- -- 44
2017-09-02 15:00:00 18.3 13 Norte 28 Noroeste 0 -- -- 41
2017-09-02 14:00:00 18.4 6 Norte 18 Noroeste 0 -- -- 38
2017-09-02 13:00:00 17.5 7 Norte 31 Noroeste 0 -- -- 53
2017-09-02 12:00:00 17.6 9 Noroeste 28 Norte 0 -- -- 53
2017-09-02 11:00:00 14.3 26 Norte 39 Norte 0 -- -- 70
2017-09-02 10:00:00 15.2 26 Noroeste 36 Norte 0 -- -- 70
2017-09-02 09:00:00 14.6 27 Noroeste 37 Norte 0 -- -- 70
2017-09-02 08:00:00 13.1 26 Noroeste 49 Noroeste 0 -- -- 64
2017-09-02 07:00:00 13.2 39 Noroeste 55 Norte 0 -- -- 66
2017-09-02 06:00:00 13.8 28 Noroeste 42 Norte 0 -- -- 77
2017-09-02 05:00:00 13.8 14 Noroeste 29 Norte 0 -- -- 73
2017-09-02 04:00:00 14.6 19 Norte 28 Norte 0 -- -- 66
2017-09-02 03:00:00 14.4 15 Noroeste 24 Norte 0 -- -- 68
2017-09-02 02:00:00 14.7 16 Noroeste 31 Noroeste 0 -- -- 66
2017-09-02 01:00:00 15 18 Noroeste 23 Noroeste 0 -- -- 67
2017-09-02 00:00:00 15.4 14 Norte 20 Norte 0 -- -- 68
2017-09-01 23:00:00 15.6 17 Noroeste 25 Noroeste 0 -- -- 69
2017-09-01 22:00:00 15.7 14 Noroeste 21 Noroeste 0 -- -- 69
2017-09-01 21:00:00 16.2 8 Noroeste 10 Norte 0 -- -- 68
2017-09-01 20:00:00 16.7 7 Este 13 Este 0 -- -- 67
2017-09-01 19:00:00 18 6 Nordeste 32 Norte 0 -- -- 65
2017-09-01 18:00:00 18.6 13 Norte 22 Norte 0 -- -- 60
2017-09-01 17:00:00 19.6 9 Norte 17 Norte 0 -- -- 60
2017-09-01 16:00:00 19.1 9 Norte 22 Noroeste 0 -- -- 62
2017-09-01 15:00:00 19.8 9 Norte 21 Norte 0 -- -- 61
2017-09-01 14:00:00 20.4 11 Norte 20 Norte 0 -- -- 57
2017-09-01 13:00:00 19.1 6 Norte 21 Este 0 -- -- 65
2017-09-01 12:00:00 18.6 17 Este 28 Este 0 -- -- 66
2017-09-01 11:00:00 17.7 8 Este 20 Este 0 -- -- 70
2017-09-01 10:00:00 16.9 8 Este 15 Nordeste 0 -- -- 76
2017-09-01 09:00:00 17.2 9 Norte 12 Norte 0 -- -- 69
2017-09-01 08:00:00 16.5 9 Norte 12 Norte 0 -- -- 69
2017-09-01 07:00:00 16.5 10 Noroeste 14 Noroeste 0 -- -- 63
2017-09-01 06:00:00 16.3 4 Oeste 13 Sudeste 0 -- -- 67
2017-09-01 05:00:00 16.9 3 Sudoeste 10 Este 0 -- -- 65
2017-09-01 04:00:00 17 3 Sur 9 Sudeste 0 -- -- 64
2017-09-01 03:00:00 16.7 9 Sudeste 17 Sudeste 0 -- -- 66
2017-09-01 02:00:00 17 11 Sudeste 13 Sudeste 0 -- -- 66
2017-09-01 01:00:00 17.5 3 Oeste 13 Noroeste 0 -- -- 56
2017-09-01 00:00:00 18.1 0 Calma 17 Norte 0 -- -- 54
2017-08-31 23:00:00 18.3 17 Norte 28 Norte 0 -- -- 58
2017-08-31 22:00:00 18.1 11 Noroeste 19 Norte 0 -- -- 57
2017-08-31 21:00:00 17.6 5 Sudeste 18 Este 0 -- -- 73
2017-08-31 20:00:00 17.1 14 Sudeste 21 Sudeste 0 -- -- 88
2017-08-31 19:00:00 18.7 9 Sudeste 16 Nordeste 0 -- -- 82
2017-08-31 18:00:00 17.9 9 Nordeste 37 Norte 0.1 -- -- 86
2017-08-31 17:00:00 18.1 25 Noroeste 36 Norte 0 -- -- 82
2017-08-31 16:00:00 19.6 25 Noroeste 34 Noroeste 21.6 -- -- 79
2017-08-31 15:00:00 16.6 25 Noroeste 47 Noroeste 20.4 -- -- 78
2017-08-31 14:00:00 20.4 15 Norte 24 Noroeste 0 -- -- 71
2017-08-31 13:00:00 22.9 9 Sur 20 Sudoeste 0 -- -- 46
2017-08-31 12:00:00 21.9 3 Este 12 Este 0 -- -- 47
2017-08-31 11:00:00 19.1 5 Norte 17 Sudeste 0 -- -- 62
2017-08-31 10:00:00 18.4 8 Este 16 Este 0 -- -- 65
2017-08-31 09:00:00 18 4 Norte 32 Norte 0 -- -- 86
2017-08-31 08:00:00 17.8 24 Norte 33 Norte 0 -- -- 87
2017-08-31 07:00:00 17.9 13 Norte 33 Noroeste 0 -- -- 82
2017-08-31 06:00:00 21.2 2 Este 15 Norte 0 -- -- 36
2017-08-31 05:00:00 21.1 11 Noroeste 15 Sur 0 -- -- 37
2017-08-31 04:00:00 19 13 Sur 22 Sudeste 0 -- -- 51
2017-08-31 03:00:00 18.9 14 Sur 30 Sur 0 -- -- 52
2017-08-31 02:00:00 18.8 18 Sur 31 Sur 0 -- -- 53
2017-08-31 01:00:00 18.7 20 Sur 29 Sur 0 -- -- 51
2017-08-31 00:00:00 18.7 22 Sur 28 Sur 0 -- -- 51
2017-08-30 23:00:00 19.2 22 Sur 28 Sur 0 -- -- 49
2017-08-30 22:00:00 20 5 Sur 18 Sur 0 -- -- 44
2017-08-30 21:00:00 19.4 16 Sur 23 Sur 0 -- -- 47
2017-08-30 20:00:00 20.3 15 Sur 25 Sur 0 -- -- 43
2017-08-30 19:00:00 21.6 14 Sur 27 Sur 0 -- -- 40
2017-08-30 18:00:00 23.1 12 Sudoeste 26 Sur 0 -- -- 36
2017-08-30 17:00:00 20.9 13 Sur 24 Sudoeste 0 -- -- 45
2017-08-30 16:00:00 23.9 11 Sudoeste 28 Sudoeste 0 -- -- 34
2017-08-30 15:00:00 24 11 Sur 22 Oeste 0 -- -- 32
2017-08-30 14:00:00 24 12 Sudoeste 22 Sudoeste 0 -- -- 33
2017-08-30 13:00:00 24 8 Sudoeste 21 Sur 0 -- -- 34
2017-08-30 12:00:00 21.3 4 Nordeste 17 Norte 0 -- -- 40
2017-08-30 11:00:00 20.5 11 Norte 30 Noroeste 0 -- -- 40
2017-08-30 10:00:00 19.3 27 Noroeste 41 Norte 0 -- -- 42
2017-08-30 09:00:00 18.8 32 Norte 48 Noroeste 0 -- -- 47
2017-08-30 08:00:00 14.9 41 Noroeste 63 Noroeste 0.1 -- -- 88
2017-08-30 07:00:00 15.7 51 Norte 61 Noroeste 0 -- -- 88
2017-08-30 06:00:00 15.7 37 Noroeste 50 Noroeste 0.1 -- -- 88
2017-08-30 05:00:00 16.2 39 Noroeste 50 Noroeste 0 -- -- 88
2017-08-30 04:00:00 16.9 45 Noroeste 63 Noroeste 0.1 -- -- 88
2017-08-30 03:00:00 17.7 45 Noroeste 63 Noroeste 0 -- -- 63
2017-08-30 02:00:00 21.4 23 Sudeste 41 Sudeste 0 -- -- 38
2017-08-30 01:00:00 21.1 26 Sudeste 36 Sudeste 0 -- -- 38
2017-08-30 00:00:00 20.6 22 Sudeste 28 Sudeste 0 -- -- 46
2017-08-29 23:00:00 17.9 12 Norte 22 Nordeste 0 -- -- 87
2017-08-29 22:00:00 18.5 9 Nordeste 14 Nordeste 0 -- -- 86
2017-08-29 21:00:00 19.4 12 Nordeste 16 Norte 0 -- -- 71
2017-08-29 20:00:00 20.4 12 Norte 35 Norte 0 -- -- 52
2017-08-29 19:00:00 19.8 26 Norte 39 Norte 0 -- -- 73
2017-08-29 18:00:00 22.9 22 Norte 31 Norte 0 -- -- 42
2017-08-29 17:00:00 22.6 16 Norte 31 Norte 0 -- -- 54
2017-08-29 16:00:00 23.8 6 Norte 17 Sudeste 0 -- -- 56
2017-08-29 15:00:00 24.4 8 Nordeste 16 Nordeste 0 -- -- 67
2017-08-29 14:00:00 24.6 9 Norte 23 Sur 0 -- -- 66
2017-08-29 13:00:00 26.1 7 Sudoeste 22 Sur 0 -- -- 36
2017-08-29 12:00:00 24.3 14 Sur 23 Sur 0 -- -- 37
2017-08-29 11:00:00 26.4 13 Sur 20 Sur 0 -- -- 33
2017-08-29 10:00:00 24.1 8 Sur 15 Sur 0 -- -- 40
2017-08-29 09:00:00 24.5 9 Sudoeste 24 Sudoeste 0 -- -- 36
2017-08-29 08:00:00 22.5 14 Sudoeste 22 Sudoeste 0 -- -- 38
2017-08-29 07:00:00 22.1 13 Sudoeste 19 Sudoeste 0 -- -- 39
2017-08-29 06:00:00 22.5 9 Oeste 21 Noroeste 0 -- -- 38
2017-08-29 05:00:00 22.9 10 Oeste 23 Noroeste 0 -- -- 38
2017-08-29 04:00:00 22.6 13 Noroeste 23 Norte 0 -- -- 38
2017-08-29 03:00:00 22.9 14 Noroeste 32 Oeste 0 -- -- 37
2017-08-29 02:00:00 23.4 18 Oeste 35 Oeste 0 -- -- 38
2017-08-29 01:00:00 23.6 19 Oeste 31 Oeste 0 -- -- 39
2017-08-29 00:00:00 23.5 22 Sudoeste 32 Sudoeste 0 -- -- 40
2017-08-28 23:00:00 24.2 21 Sudoeste 31 Sudoeste 0 -- -- 39
2017-08-28 22:00:00 23.6 11 Sudoeste 28 Sur 0 -- -- 41
2017-08-28 21:00:00 24 18 Sur 34 Sudoeste 0 -- -- 41
2017-08-28 20:00:00 23 20 Sur 25 Sur 0 -- -- 47
2017-08-28 19:00:00 23.3 17 Sur 23 Sudoeste 0 -- -- 65
2017-08-28 18:00:00 22.7 14 Sur 46 Sudoeste 0 -- -- 76
2017-08-28 17:00:00 26.6 11 Sudoeste 22 Oeste 0 -- -- 38
2017-08-28 16:00:00 24.5 12 Sur 31 Sur 0 -- -- 58
2017-08-28 15:00:00 25.2 22 Sur 36 Sur 0 -- -- 58
2017-08-28 14:00:00 25.6 15 Sur 23 Sur 0 -- -- 48
2017-08-28 13:00:00 26.6 6 Sur 13 Sudeste 0 -- -- 41
2017-08-28 12:00:00 28.7 0 Calma 15 Sudeste 0 -- -- 37
2017-08-28 11:00:00 27 5 Sudeste 14 Sur 0 -- -- 31
2017-08-28 10:00:00 26 9 Sur 16 Sudeste 0 -- -- 32
2017-08-28 09:00:00 25.4 14 Sur 18 Sur 0 -- -- 34
2017-08-28 08:00:00 24.7 12 Sur 18 Sur 0 -- -- 32
2017-08-28 07:00:00 24.3 13 Sur 21 Sur 0 -- -- 29
2017-08-28 06:00:00 23.5 16 Sudeste 22 Sudeste 0 -- -- 36
2017-08-28 05:00:00 24.2 16 Sudeste 23 Sudeste 0 -- -- 33
2017-08-28 04:00:00 23.7 17 Sudeste 28 Sudeste 0 -- -- 43
2017-08-28 03:00:00 23.6 22 Sudeste 28 Sudeste 0 -- -- 48
2017-08-28 02:00:00 24.2 14 Sudeste 21 Sudeste 0 -- -- 46
2017-08-28 01:00:00 24.2 14 Sudeste 17 Sudeste 0 -- -- 41
2017-08-28 00:00:00 24.5 6 Nordeste 13 Nordeste 0 -- -- 45
2017-08-27 23:00:00 22.7 9 Nordeste 14 Norte 0 -- -- 67
2017-08-27 22:00:00 22.5 14 Norte 25 Norte 0 -- -- 70
2017-08-27 21:00:00 25.6 4 Sudoeste 12 Sur 0 -- -- 35
2017-08-27 20:00:00 24.3 0 Calma 26 Sudeste 0 -- -- 58
2017-08-27 19:00:00 24.1 17 Sudeste 21 Sudeste 0 -- -- 58
2017-08-27 18:00:00 24.5 9 Sur 19 Sudoeste 0 -- -- 57
2017-08-27 17:00:00 25.6 9 Sur 18 Sur 0 -- -- 54
2017-08-27 16:00:00 27.8 10 Sudoeste 25 Sur 0 -- -- 44
2017-08-27 15:00:00 30.1 8 Sudoeste 21 Sudoeste 0 -- -- 31
2017-08-27 14:00:00 28 10 Sur 22 Sur 0 -- -- 38
2017-08-27 13:00:00 27.4 10 Sur 23 Sudoeste 0 -- -- 42
2017-08-27 12:00:00 26.7 11 Sur 30 Sudeste 0 -- -- 43
2017-08-27 11:00:00 27.9 19 Sudeste 27 Sudeste 0 -- -- 25
2017-08-27 10:00:00 27.3 17 Sudeste 23 Sudeste 0 -- -- 22
2017-08-27 09:00:00 25.5 17 Sudeste 22 Sudeste 0 -- -- 28
2017-08-27 08:00:00 23.5 12 Sudeste 14 Sudeste 0 -- -- 29
2017-08-27 07:00:00 21.8 13 Norte 24 Norte 0 -- -- 41
2017-08-27 06:00:00 22.1 19 Norte 23 Norte 0 -- -- 53
2017-08-27 05:00:00 24.3 4 Este 17 Sudeste 0 -- -- 25
2017-08-27 04:00:00 24 16 Sudeste 18 Sudeste 0 -- -- 25
2017-08-27 03:00:00 24.7 9 Sudeste 15 Este 0 -- -- 24
2017-08-27 02:00:00 23.4 3 Nordeste 8 Nordeste 0 -- -- 48
2017-08-27 01:00:00 22.7 0 Calma 10 Este 0 -- -- 60
2017-08-27 00:00:00 23 7 Nordeste 14 Nordeste 0 -- -- 53
2017-08-26 23:00:00 22.7 15 Norte 28 Norte 0 -- -- 56
2017-08-26 22:00:00 23.4 16 Norte 22 Norte 0 -- -- 58
2017-08-26 21:00:00 25.4 14 Norte 16 Norte 0 -- -- 32
2017-08-26 20:00:00 22.6 10 Sudeste 16 Sudeste 0 -- -- 70
2017-08-26 19:00:00 24.5 11 Sur 19 Sur 0 -- -- 62
2017-08-26 18:00:00 26.6 8 Sudoeste 20 Sur 0 -- -- 47
2017-08-26 17:00:00 27.8 10 Sudoeste 21 Sur 0 -- -- 39
2017-08-26 16:00:00 28.3 7 Sur 26 Sudeste 0 -- -- 38
2017-08-26 15:00:00 28 10 Sur 25 Sudeste 0 -- -- 40
2017-08-26 14:00:00 26.7 10 Sur 25 Sudoeste 0 -- -- 44
2017-08-26 13:00:00 26.5 8 Sur 21 Sudeste 0 -- -- 51
2017-08-26 12:00:00 24.2 8 Sur 16 Sur 0 -- -- 52
2017-08-26 11:00:00 23.7 4 Norte 12 Sur 0 -- -- 61
2017-08-26 10:00:00 23.6 9 Sur 18 Sur 0 -- -- 31
2017-08-26 09:00:00 25.3 8 Sudeste 13 Sur 0 -- -- 25
2017-08-26 08:00:00 22.7 5 Este 10 Norte 0 -- -- 29
2017-08-26 07:00:00 21.5 9 Nordeste 15 Nordeste 0 -- -- 32
2017-08-26 06:00:00 22.5 15 Sudeste 25 Sudeste 0 -- -- 27
2017-08-26 05:00:00 21.6 24 Sudeste 30 Sudeste 0 -- -- 31
2017-08-26 04:00:00 21.1 26 Sudeste 31 Sudeste 0 -- -- 35
2017-08-26 03:00:00 20.7 22 Sudeste 25 Sur 0 -- -- 39
2017-08-26 02:00:00 20.5 18 Sudeste 25 Sudeste 0 -- -- 38
2017-08-26 01:00:00 19 12 Nordeste 22 Norte 0 -- -- 87
2017-08-26 00:00:00 22.5 11 Sudeste 27 Sudeste 0 -- -- 29
2017-08-25 23:00:00 22.6 18 Sudeste 33 Sudeste 0 -- -- 32
2017-08-25 22:00:00 21.7 28 Sudeste 77 Sur 0 -- -- 52
2017-08-25 21:00:00 20.3 32 Sudeste 40 Sudeste 0 -- -- 78
2017-08-25 20:00:00 21.4 27 Sur 36 Sur 0 -- -- 81
2017-08-25 19:00:00 23.4 17 Sur 24 Sur 0 -- -- 71
2017-08-25 18:00:00 26 10 Sur 22 Sur 0 -- -- 53
2017-08-25 17:00:00 25.8 12 Sudoeste 23 Sudoeste 0 -- -- 54
2017-08-25 16:00:00 25.2 11 Sudoeste 23 Sur 0 -- -- 49
2017-08-25 15:00:00 27.1 11 Sur 27 Sur 0 -- -- 36
2017-08-25 14:00:00 26.8 12 Sudeste 27 Sur 0 -- -- 31
2017-08-25 13:00:00 26.4 10 Sur 23 Sudoeste 0 -- -- 28
2017-08-25 12:00:00 26.1 10 Sur 22 Sur 0 -- -- 35
2017-08-25 11:00:00 25.7 8 Sur 19 Sur 0 -- -- 29
2017-08-25 10:00:00 25.9 6 Sudeste 15 Sudeste 0 -- -- 22
2017-08-25 09:00:00 24.4 10 Sudeste 19 Sudeste 0 -- -- 24
2017-08-25 08:00:00 22 16 Sudeste 21 Sudeste 0 -- -- 28
2017-08-25 07:00:00 20.6 18 Sudeste 21 Sudeste 0 -- -- 35
2017-08-25 06:00:00 20.4 19 Sudeste 23 Sudeste 0 -- -- 36
2017-08-25 05:00:00 20.4 22 Sudeste 27 Sudeste 0 -- -- 37
2017-08-25 04:00:00 20 24 Sudeste 35 Sudeste 0 -- -- 39
2017-08-25 03:00:00 20.3 30 Sudeste 36 Sudeste 0 -- -- 39
2017-08-25 02:00:00 20.4 29 Sur 39 Sur 0 -- -- 37
2017-08-25 01:00:00 20.6 32 Sur 41 Sur 0 -- -- 34
2017-08-25 00:00:00 20.6 33 Sur 39 Sur 0 -- -- 33
2017-08-24 23:00:00 20.7 30 Sur 37 Sur 0 -- -- 34
2017-08-24 22:00:00 20.2 29 Sur 33 Sur 0 -- -- 46
2017-08-24 21:00:00 20.8 26 Sur 33 Sur 0 -- -- 40
2017-08-24 20:00:00 21.2 18 Sur 26 Sur 0 -- -- 36
2017-08-24 19:00:00 23.5 15 Sur 27 Sur 0 -- -- 32
2017-08-24 18:00:00 24.7 15 Sur 26 Sur 0 -- -- 31
2017-08-24 17:00:00 25.6 15 Sur 26 Sudoeste 0 -- -- 30
2017-08-24 16:00:00 25.6 12 Sur 27 Sudoeste 0 -- -- 32
2017-08-24 15:00:00 26.6 12 Sur 31 Sur 0 -- -- 32
2017-08-24 14:00:00 27.6 15 Sur 30 Sudeste 0 -- -- 25
2017-08-24 13:00:00 25.8 14 Sur 28 Sur 0 -- -- 23
2017-08-24 12:00:00 25.6 15 Sur 29 Sur 0 -- -- 24
2017-08-24 11:00:00 24.7 20 Sudeste 33 Sur 0 -- -- 23
2017-08-24 10:00:00 23 28 Sudeste 33 Sudeste 0 -- -- 23
2017-08-24 09:00:00 21.8 14 Sudeste 28 Sudeste 0 -- -- 23
2017-08-24 08:00:00 20 18 Sudeste 26 Sudeste 0 -- -- 32
2017-08-24 07:00:00 17.3 4 Norte 16 Norte 0 -- -- 85
2017-08-24 06:00:00 20.9 9 Este 26 Sudeste 0 -- -- 24
2017-08-24 05:00:00 20.6 19 Sudeste 27 Sudeste 0 -- -- 37
2017-08-24 04:00:00 20.9 20 Sudeste 24 Sudeste 0 -- -- 41
2017-08-24 03:00:00 21 21 Sudeste 27 Sur 0 -- -- 43
2017-08-24 02:00:00 21.4 19 Sudeste 26 Sudeste 0 -- -- 42
2017-08-24 01:00:00 22.1 18 Sur 25 Sur 0 -- -- 39
2017-08-24 00:00:00 22.4 17 Sur 21 Sur 0 -- -- 36